Time;durP1;ratioP1;P1;durP2;ratioP2;P2;SDS_P1;SDS_P2;PMS_P1;PMS_P2;Temp;Humidity;BMP_temperature;BMP_pressure;BME280_temperature;BME280_humidity;BME280_pressure;Samples;Min_cycle;Max_cycle;Signal;HPM_P1;HPM_P2
2023/06/05 00:02:05;;;;;;;;;5.67;4.00;;;;;21.42;39.33;101578.72;5071264;28;70051;-53
2023/06/05 00:04:30;;;;;;;;;5.33;5.00;;;;;21.39;38.22;101572.69;5070756;28;68289;-52
2023/06/05 00:07:00;;;;;;;;;7.67;4.67;;;;;21.36;39.89;101576.50;5076830;27;71291;-53
2023/06/05 00:09:26;;;;;;;;;3.00;3.00;;;;;21.32;38.89;101567.78;5063976;27;46105;-53
2023/06/05 00:11:52;;;;;;;;;4.00;4.00;;;;;21.30;39.18;101569.78;5060104;27;45360;-53
2023/06/05 00:14:17;;;;;;;;;3.33;3.33;;;;;21.28;38.84;101579.84;5061923;28;51420;-52
2023/06/05 00:16:42;;;;;;;;;7.67;4.67;;;;;21.24;38.53;101574.84;5066398;27;73498;-52
2023/06/05 00:19:08;;;;;;;;;4.00;4.00;;;;;21.23;38.42;101571.25;5059725;27;62197;-53
2023/06/05 00:21:33;;;;;;;;;8.67;7.00;;;;;21.19;39.49;101571.66;5067449;28;45394;-53
2023/06/05 00:23:59;;;;;;;;;3.00;3.00;;;;;21.16;39.19;101572.78;5063154;28;45342;-53
2023/06/05 00:26:24;;;;;;;;;5.67;5.00;;;;;21.14;38.54;101582.84;5059164;28;46372;-53
2023/06/05 00:28:50;;;;;;;;;4.67;3.33;;;;;21.12;39.93;101574.03;5066444;28;45487;-50
2023/06/05 00:31:17;;;;;;;;;5.00;4.33;;;;;21.16;39.38;101580.91;5063471;28;45596;-53
2023/06/05 00:33:42;;;;;;;;;6.00;5.00;;;;;21.18;38.75;101584.31;5066268;27;45749;-51
2023/06/05 00:36:07;;;;;;;;;6.33;5.00;;;;;21.15;39.23;101576.47;5061706;28;45564;-50
2023/06/05 00:38:33;;;;;;;;;6.00;5.00;;;;;21.20;39.24;101578.78;5060982;27;54329;-53
2023/06/05 00:40:58;;;;;;;;;4.33;3.00;;;;;21.21;39.37;101575.97;5066754;27;56119;-52
2023/06/05 00:43:24;;;;;;;;;4.67;4.67;;;;;21.22;39.02;101587.63;5060211;28;46470;-52
2023/06/05 00:45:50;;;;;;;;;5.00;5.00;;;;;21.17;38.52;101582.59;5075705;27;45581;-52
2023/06/05 00:48:16;;;;;;;;;4.33;4.33;;;;;21.16;38.79;101586.31;5070849;28;45831;-51
2023/06/05 00:50:42;;;;;;;;;4.00;4.00;;;;;21.12;38.19;101577.56;5057885;28;45331;-52
2023/06/05 00:53:07;;;;;;;;;4.00;4.00;;;;;21.17;38.40;101582.59;5069282;27;45504;-53
2023/06/05 00:55:33;;;;;;;;;6.33;4.67;;;;;21.15;38.83;101577.31;5062316;28;46421;-52
2023/06/05 00:58:00;;;;;;;;;4.00;4.00;;;;;21.09;38.16;101579.66;5067737;28;67332;-53
2023/06/05 01:00:26;;;;;;;;;3.67;3.67;;;;;21.04;38.77;101580.06;5072762;28;45649;-53
2023/06/05 01:02:53;;;;;;;;;4.67;4.67;;;;;21.02;38.40;101592.84;5062524;28;45562;-51
2023/06/05 01:05:19;;;;;;;;;4.00;4.00;;;;;20.98;38.62;101584.13;5063652;28;45471;-52
2023/06/05 01:07:47;;;;;;;;;9.33;5.33;;;;;20.98;39.22;101588.69;5070790;28;45310;-57
2023/06/05 01:10:13;;;;;;;;;3.33;3.33;;;;;20.97;38.67;101582.38;5070091;27;45593;-54
2023/06/05 01:13:00;;;;;;;;;6.67;6.67;;;;;20.96;38.83;101580.69;5068848;27;47047;-50
2023/06/05 01:15:28;;;;;;;;;7.33;4.33;;;;;21.05;38.68;101576.34;5059728;28;45722;-53
2023/06/05 01:17:56;;;;;;;;;3.67;3.67;;;;;21.07;38.94;101584.38;5063356;28;45473;-53
2023/06/05 01:20:22;;;;;;;;;2.00;2.00;;;;;21.07;38.87;101589.78;5060320;28;45447;-51
2023/06/05 01:22:52;;;;;;;;;4.00;4.00;;;;;21.00;38.47;101583.97;5055992;27;45409;-53
2023/06/05 01:25:18;;;;;;;;;5.33;5.33;;;;;20.97;38.73;101587.78;5067582;28;45633;-52
2023/06/05 01:27:49;;;;;;;;;4.67;3.67;;;;;20.90;39.47;101583.91;5066672;27;45410;-51
2023/06/05 01:30:24;;;;;;;;;4.00;4.00;;;;;20.87;39.57;101586.84;5065608;28;45569;-52
2023/06/05 01:32:55;;;;;;;;;5.33;4.00;;;;;20.86;38.89;101593.25;5059347;28;45350;-53
2023/06/05 01:35:27;;;;;;;;;5.67;5.00;;;;;20.81;38.43;101585.50;5063887;28;46806;-50
2023/06/05 01:37:54;;;;;;;;;7.00;5.33;;;;;20.76;38.99;101586.88;5064032;28;45454;-51
2023/06/05 01:40:22;;;;;;;;;4.67;4.67;;;;;20.76;40.52;101592.25;5064614;28;45430;-51
2023/06/05 01:42:47;;;;;;;;;4.00;4.00;;;;;20.78;40.01;101582.16;5076621;27;45732;-53
2023/06/05 01:45:18;;;;;;;;;6.00;4.33;;;;;20.71;39.40;101584.53;5065194;27;45459;-53
2023/06/05 01:47:45;;;;;;;;;7.00;6.00;;;;;20.65;40.49;101585.00;5074608;27;45422;-53
2023/06/05 01:50:12;;;;;;;;;5.00;5.00;;;;;20.65;39.48;101585.84;5073951;27;45308;-53
2023/06/05 01:52:44;;;;;;;;;4.67;4.67;;;;;20.59;39.63;101580.94;5070520;27;45537;-51
2023/06/05 01:55:15;;;;;;;;;4.67;4.00;;;;;20.62;40.95;101582.53;5073116;28;45432;-53
2023/06/05 01:57:43;;;;;;;;;6.33;4.00;;;;;20.61;40.23;101575.41;5074977;28;45430;-53
2023/06/05 02:00:13;;;;;;;;;3.67;3.00;;;;;20.62;40.83;101574.41;5076089;28;45466;-53
2023/06/05 02:02:41;;;;;;;;;5.33;5.33;;;;;20.60;40.64;101574.56;5071399;27;45534;-52
2023/06/05 02:05:07;;;;;;;;;6.00;5.67;;;;;20.59;40.47;101572.81;5066297;27;45355;-52
2023/06/05 02:07:36;;;;;;;;;4.00;4.00;;;;;20.54;40.55;101569.63;5067859;28;45438;-53
2023/06/05 02:10:02;;;;;;;;;4.00;4.00;;;;;20.49;40.25;101569.13;5062572;27;45483;-53
2023/06/05 02:12:29;;;;;;;;;4.33;4.00;;;;;20.44;40.18;101571.34;5067008;28;45369;-52
2023/06/05 02:14:55;;;;;;;;;5.67;5.00;;;;;20.41;41.93;101568.91;5063103;27;47041;-52
2023/06/05 02:17:20;;;;;;;;;5.00;5.00;;;;;20.41;41.04;101566.19;5063296;28;45451;-52
2023/06/05 02:19:46;;;;;;;;;3.67;3.67;;;;;20.39;41.16;101555.53;5060812;27;45571;-52
2023/06/05 02:22:11;;;;;;;;;5.33;4.67;;;;;20.39;41.12;101560.94;5075477;28;48390;-52
2023/06/05 02:24:37;;;;;;;;;5.00;4.33;;;;;20.35;40.46;101566.69;5065681;27;71728;-52
2023/06/05 02:27:02;;;;;;;;;6.00;4.00;;;;;20.36;41.47;101563.00;5067302;27;45680;-53
2023/06/05 02:29:28;;;;;;;;;4.33;4.33;;;;;20.38;41.20;101561.06;5063023;27;45779;-50
2023/06/05 02:31:53;;;;;;;;;3.33;3.33;;;;;20.43;41.08;101566.94;5067160;28;45556;-53
2023/06/05 02:34:19;;;;;;;;;5.33;5.33;;;;;20.42;41.14;101559.81;5062105;27;46278;-53
2023/06/05 02:36:45;;;;;;;;;8.00;5.67;;;;;20.43;41.50;101554.28;5064270;27;47107;-53
2023/06/05 02:39:11;;;;;;;;;5.33;4.33;;;;;20.38;41.51;101553.81;5067340;27;45541;-52
2023/06/05 02:41:38;;;;;;;;;5.00;5.00;;;;;20.38;41.64;101563.75;5064466;28;45518;-51
2023/06/05 02:44:03;;;;;;;;;7.00;4.67;;;;;20.33;41.34;101559.56;5067292;27;46795;-53
2023/06/05 02:46:28;;;;;;;;;6.67;5.00;;;;;20.26;41.25;101558.34;5075646;28;68501;-51
2023/06/05 02:48:54;;;;;;;;;8.67;6.67;;;;;20.17;41.69;101553.66;5072533;27;45818;-52
2023/06/05 02:51:19;;;;;;;;;10.00;5.67;;;;;20.14;41.85;101553.88;5070319;28;45560;-53
2023/06/05 02:53:45;;;;;;;;;4.00;4.00;;;;;20.09;41.36;101550.69;5074269;28;45647;-52
2023/06/05 02:56:12;;;;;;;;;4.00;4.00;;;;;20.01;42.23;101551.28;5069991;28;45303;-52
2023/06/05 02:58:39;;;;;;;;;6.00;5.33;;;;;19.98;41.92;101560.50;5061745;28;45634;-53
2023/06/05 03:01:06;;;;;;;;;7.67;6.00;;;;;19.95;41.65;101555.34;5068435;28;45336;-52
2023/06/05 03:03:32;;;;;;;;;6.00;6.00;;;;;19.91;41.99;101553.88;5083987;27;46671;-52
2023/06/05 03:06:04;;;;;;;;;8.00;7.00;;;;;19.88;42.62;101551.41;5061948;27;45407;-52
2023/06/05 03:08:36;;;;;;;;;4.67;4.67;;;;;19.89;42.30;101545.03;5071232;28;45434;-53
2023/06/05 03:11:05;;;;;;;;;7.00;5.00;;;;;19.90;42.27;101543.19;5061744;27;45404;-52
2023/06/05 03:13:32;;;;;;;;;6.00;5.00;;;;;19.87;42.34;101551.50;5074029;28;46579;-52
2023/06/05 03:15:58;;;;;;;;;6.00;5.00;;;;;19.80;42.56;101551.09;5071539;28;45320;-52
2023/06/05 03:18:24;;;;;;;;;6.33;6.33;;;;;19.74;42.48;101547.06;5065089;27;45702;-51
2023/06/05 03:20:51;;;;;;;;;8.33;5.67;;;;;19.69;42.80;101551.94;5063539;28;46012;-52
2023/06/05 03:23:16;;;;;;;;;5.67;5.67;;;;;19.67;42.95;101554.75;5072405;28;45878;-52
2023/06/05 03:25:42;;;;;;;;;5.33;5.33;;;;;19.65;43.16;101554.00;5071721;27;45528;-50
2023/06/05 03:28:07;;;;;;;;;8.00;7.00;;;;;19.65;42.79;101556.72;5067885;27;45411;-50
2023/06/05 03:30:32;;;;;;;;;6.00;6.00;;;;;19.63;43.50;101552.41;5061224;28;45272;-50
2023/06/05 03:32:58;;;;;;;;;6.00;6.00;;;;;19.58;43.58;101555.47;5068397;28;62424;-53
2023/06/05 03:35:23;;;;;;;;;7.00;5.00;;;;;19.58;44.21;101560.88;5079927;27;45507;-51
2023/06/05 03:37:48;;;;;;;;;7.33;5.67;;;;;19.61;44.28;101563.31;5074267;27;63664;-51
2023/06/05 03:40:14;;;;;;;;;6.67;6.00;;;;;19.55;43.77;101554.84;5062386;27;62259;-52
2023/06/05 03:42:39;;;;;;;;;8.00;6.00;;;;;19.45;42.86;101558.25;5063334;27;60330;-53
2023/06/05 03:45:06;;;;;;;;;9.67;8.00;;;;;19.34;43.55;101550.94;5072708;28;45371;-53
2023/06/05 03:47:34;;;;;;;;;5.33;5.33;;;;;19.28;43.52;101555.94;5085502;27;45440;-52
2023/06/05 03:50:00;;;;;;;;;6.00;6.00;;;;;19.19;44.07;101557.50;5067276;28;45617;-51
2023/06/05 03:52:26;;;;;;;;;7.67;7.67;;;;;19.12;44.07;101558.94;5062337;27;46240;-51
2023/06/05 03:54:55;;;;;;;;;6.33;5.33;;;;;19.06;44.17;101548.59;5070703;28;45363;-52
2023/06/05 03:57:21;;;;;;;;;4.33;4.33;;;;;18.97;45.16;101552.84;5071632;27;45359;-52
2023/06/05 03:59:49;;;;;;;;;7.33;7.33;;;;;18.92;44.75;101558.56;5067143;28;45616;-50
2023/06/05 04:02:15;;;;;;;;;7.00;7.00;;;;;18.84;44.62;101560.94;5063480;28;45553;-51
2023/06/05 04:04:40;;;;;;;;;10.33;7.33;;;;;18.79;44.71;101565.81;5075458;28;45448;-52
2023/06/05 04:07:06;;;;;;;;;7.33;7.33;;;;;18.74;45.43;101565.28;5066506;28;70339;-50
2023/06/05 04:09:32;;;;;;;;;9.33;8.00;;;;;18.68;44.75;101564.75;5083237;27;45363;-53
2023/06/05 04:11:58;;;;;;;;;8.00;7.00;;;;;18.66;44.67;101563.13;5061988;28;45892;-50
2023/06/05 04:14:24;;;;;;;;;13.00;9.00;;;;;18.64;45.59;101562.38;5065683;28;45718;-53
2023/06/05 04:16:49;;;;;;;;;8.67;8.00;;;;;18.61;45.37;101565.31;5063514;27;45869;-52
2023/06/05 04:19:15;;;;;;;;;8.00;8.00;;;;;18.59;45.48;101569.94;5063933;28;45590;-50
2023/06/05 04:21:41;;;;;;;;;7.67;7.67;;;;;18.57;45.40;101566.50;5072557;28;46944;-51
2023/06/05 04:24:09;;;;;;;;;5.00;5.00;;;;;18.58;46.19;101574.47;5072227;27;45445;-52
2023/06/05 04:26:38;;;;;;;;;7.33;5.00;;;;;18.60;45.46;101568.97;5069967;28;45470;-49
2023/06/05 04:29:13;;;;;;;;;7.33;6.67;;;;;18.60;46.54;101569.81;5061178;27;45371;-52
2023/06/05 04:31:56;;;;;;;;;8.67;8.33;;;;;18.60;45.71;101575.19;5066505;28;46612;-51
2023/06/05 04:34:22;;;;;;;;;7.67;7.67;;;;;18.59;45.68;101578.88;5074072;27;45436;-53
2023/06/05 04:36:49;;;;;;;;;8.33;8.00;;;;;18.61;46.38;101574.22;5063618;28;59720;-52
2023/06/05 04:39:15;;;;;;;;;10.67;9.67;;;;;18.62;46.23;101575.13;5062264;28;45473;-53
2023/06/05 04:41:45;;;;;;;;;10.00;8.00;;;;;18.65;46.86;101575.72;5061908;28;47337;-53
2023/06/05 04:44:16;;;;;;;;;8.67;7.33;;;;;18.67;45.89;101572.94;5060213;27;45527;-52
2023/06/05 04:46:45;;;;;;;;;13.33;9.00;;;;;18.71;46.07;101587.03;5062113;28;45532;-53
2023/06/05 04:49:14;;;;;;;;;7.33;7.00;;;;;18.71;46.16;101589.72;5060485;28;45975;-51
2023/06/05 04:51:40;;;;;;;;;10.00;7.00;;;;;18.73;45.88;101585.94;5066513;27;45571;-50
2023/06/05 04:54:06;;;;;;;;;11.00;9.67;;;;;18.73;45.81;101585.09;5067057;28;45392;-52
2023/06/05 04:56:32;;;;;;;;;9.33;9.33;;;;;18.74;46.35;101585.00;5063348;28;53221;-51
2023/06/05 04:58:59;;;;;;;;;16.33;8.67;;;;;18.76;46.40;101587.56;5059216;28;45303;-49
2023/06/05 05:01:25;;;;;;;;;8.67;8.33;;;;;18.78;46.67;101582.94;5058931;28;45500;-50
2023/06/05 05:03:50;;;;;;;;;7.67;7.67;;;;;18.82;47.44;101579.03;5059035;27;45432;-50
2023/06/05 05:06:16;;;;;;;;;8.00;7.00;;;;;18.88;46.87;101584.00;5063686;27;45504;-52
2023/06/05 05:08:43;;;;;;;;;14.00;9.67;;;;;18.96;46.49;101584.31;5070279;27;45529;-52
2023/06/05 05:11:08;;;;;;;;;9.67;8.33;;;;;19.01;46.42;101586.69;5071148;27;47156;-52
2023/06/05 05:13:33;;;;;;;;;10.00;10.00;;;;;19.05;46.56;101588.19;5058610;28;45414;-53
2023/06/05 05:15:59;;;;;;;;;10.33;7.67;;;;;19.12;46.33;101591.28;5067756;28;63340;-51
2023/06/05 05:18:25;;;;;;;;;10.33;9.00;;;;;19.14;46.91;101590.19;5066070;28;45462;-50
2023/06/05 05:20:51;;;;;;;;;13.00;8.33;;;;;19.26;47.42;101584.88;5067439;27;46960;-51
2023/06/05 05:23:16;;;;;;;;;10.00;7.33;;;;;19.40;46.87;101579.31;5071909;27;45565;-50
2023/06/05 05:25:41;;;;;;;;;8.00;8.00;;;;;19.59;46.78;101586.84;5064340;28;45354;-49
2023/06/05 05:28:07;;;;;;;;;9.33;8.00;;;;;19.68;46.24;101579.91;5064557;27;45383;-51
2023/06/05 05:30:33;;;;;;;;;9.00;7.67;;;;;19.77;46.95;101586.44;5063596;27;45381;-49
2023/06/05 05:32:58;;;;;;;;;14.33;10.00;;;;;19.87;46.28;101581.19;5074427;28;45315;-52
2023/06/05 05:35:24;;;;;;;;;9.67;9.33;;;;;19.92;45.85;101587.09;5075032;28;45364;-52
2023/06/05 05:37:49;;;;;;;;;16.00;10.00;;;;;20.05;46.06;101584.31;5061613;28;45478;-52
2023/06/05 05:40:15;;;;;;;;;10.67;10.00;;;;;20.12;46.03;101586.44;5068518;27;45601;-52
2023/06/05 05:42:41;;;;;;;;;14.00;10.33;;;;;20.26;46.08;101589.88;5069649;27;45599;-54
2023/06/05 05:45:07;;;;;;;;;8.00;8.00;;;;;20.38;45.70;101591.63;5077695;27;45549;-50
2023/06/05 05:47:32;;;;;;;;;11.00;9.33;;;;;20.36;44.98;101600.81;5074376;27;45605;-52
2023/06/05 05:49:58;;;;;;;;;15.00;11.67;;;;;20.40;45.07;101595.06;5068117;27;69599;-52
2023/06/05 05:52:23;;;;;;;;;9.67;8.00;;;;;20.48;45.56;101599.84;5063915;27;45489;-52
2023/06/05 05:54:49;;;;;;;;;11.67;9.00;;;;;20.52;45.31;101598.63;5066194;27;62323;-52
2023/06/05 05:57:14;;;;;;;;;8.33;7.67;;;;;20.56;44.74;101593.81;5065292;27;45418;-51
2023/06/05 05:59:42;;;;;;;;;10.00;8.00;;;;;20.64;45.07;101596.78;5064936;27;47071;-52
2023/06/05 06:02:09;;;;;;;;;10.00;9.00;;;;;20.71;44.91;101606.13;5069900;27;45464;-51
2023/06/05 06:04:35;;;;;;;;;11.33;8.00;;;;;20.81;44.78;101607.13;5073241;27;45385;-49
2023/06/05 06:07:00;;;;;;;;;9.33;9.33;;;;;20.94;44.23;101612.41;5069787;27;45497;-51
2023/06/05 06:09:26;;;;;;;;;13.67;9.67;;;;;21.04;44.11;101611.63;5068823;27;46086;-52
2023/06/05 06:11:55;;;;;;;;;15.33;10.67;;;;;21.18;43.58;101605.94;5062870;28;45539;-53
2023/06/05 06:14:23;;;;;;;;;10.67;9.00;;;;;21.28;43.19;101608.78;5064652;27;45711;-53
2023/06/05 06:16:53;;;;;;;;;11.00;10.67;;;;;21.36;43.19;101608.13;5065429;28;45334;-52
2023/06/05 06:19:23;;;;;;;;;20.33;18.67;;;;;21.44;42.93;101616.47;5072283;27;46150;-53
2023/06/05 06:21:48;;;;;;;;;18.00;11.33;;;;;21.51;42.77;101603.28;5067101;28;45324;-52
2023/06/05 06:24:15;;;;;;;;;14.00;12.00;;;;;21.60;43.16;101605.22;5070034;27;45862;-52
2023/06/05 06:26:42;;;;;;;;;16.00;9.67;;;;;21.78;42.76;101610.94;5069587;27;45501;-53
2023/06/05 06:29:08;;;;;;;;;8.67;8.00;;;;;22.02;42.08;101609.81;5070633;27;45508;-52
2023/06/05 06:31:33;;;;;;;;;10.67;8.00;;;;;22.22;42.41;101610.81;5067386;27;45470;-52
2023/06/05 06:33:59;;;;;;;;;12.33;9.67;;;;;22.60;41.26;101606.63;5077193;27;46339;-52
2023/06/05 06:36:26;;;;;;;;;12.00;9.00;;;;;23.71;41.04;101609.28;5068756;28;45388;-52
2023/06/05 06:38:51;;;;;;;;;11.67;8.00;;;;;25.24;39.57;101608.25;5059980;28;46147;-53
2023/06/05 06:41:17;;;;;;;;;11.00;11.00;;;;;26.77;36.92;101602.66;5055848;28;66579;-51
2023/06/05 06:43:42;;;;;;;;;10.67;9.67;;;;;28.16;35.51;101603.88;5070825;27;45470;-52
2023/06/05 06:46:07;;;;;;;;;9.33;9.00;;;;;29.36;33.41;101609.25;5067461;28;62983;-52
2023/06/05 06:48:33;;;;;;;;;11.33;8.67;;;;;30.41;32.04;101594.94;5065638;28;73690;-52
2023/06/05 06:50:58;;;;;;;;;8.33;7.67;;;;;31.23;30.57;101596.66;5066621;27;45763;-53
2023/06/05 06:53:24;;;;;;;;;8.67;7.00;;;;;32.00;29.34;101602.47;5073723;27;60004;-53
2023/06/05 06:55:51;;;;;;;;;6.67;6.33;;;;;32.85;29.05;101605.13;5071871;28;45562;-53
2023/06/05 06:58:17;;;;;;;;;6.33;6.00;;;;;33.48;27.68;101610.41;5075801;28;46698;-53
2023/06/05 07:00:43;;;;;;;;;9.33;8.67;;;;;34.08;26.81;101614.25;5068113;27;45545;-54
2023/06/05 07:03:09;;;;;;;;;9.33;8.67;;;;;34.60;25.89;101617.13;5077328;27;45391;-53
2023/06/05 07:05:35;;;;;;;;;11.33;10.00;;;;;35.17;25.08;101609.03;5059864;27;45702;-53
2023/06/05 07:08:02;;;;;;;;;8.33;7.33;;;;;35.73;24.79;101610.16;5058059;27;46272;-53
2023/06/05 07:10:29;;;;;;;;;7.33;6.33;;;;;36.33;24.12;101605.97;5066069;27;45579;-54
2023/06/05 07:12:55;;;;;;;;;8.00;8.00;;;;;36.86;23.89;101607.31;5067481;27;46203;-53
2023/06/05 07:15:21;;;;;;;;;7.67;6.33;;;;;37.50;22.55;101617.09;5060922;28;45660;-53
2023/06/05 07:17:48;;;;;;;;;8.33;8.33;;;;;37.76;22.17;101621.38;5053933;28;47687;-54
2023/06/05 07:20:14;;;;;;;;;10.00;9.00;;;;;38.05;20.69;101615.97;5054037;28;45406;-54
2023/06/05 07:22:47;;;;;;;;;7.00;7.00;;;;;38.22;20.62;101618.88;5048418;28;45427;-55
2023/06/05 07:25:15;;;;;;;;;7.67;6.00;;;;;38.45;19.24;101623.56;5047267;27;45519;-53
2023/06/05 07:27:44;;;;;;;;;7.00;6.00;;;;;38.82;20.61;101616.88;5042079;28;47196;-54
2023/06/05 07:30:12;;;;;;;;;8.00;6.67;;;;;39.29;20.32;101616.66;5075666;27;45407;-54
2023/06/05 07:32:38;;;;;;;;;11.33;9.00;;;;;39.69;18.60;101612.94;5061016;27;46693;-54
2023/06/05 07:35:04;;;;;;;;;9.67;9.67;;;;;39.69;19.14;101618.50;5051366;27;45632;-53
2023/06/05 07:37:30;;;;;;;;;9.00;8.00;;;;;39.98;19.56;101620.34;5060115;27;45514;-54
2023/06/05 07:39:55;;;;;;;;;9.00;8.33;;;;;40.45;18.91;101622.69;5070502;28;45412;-54
2023/06/05 07:42:20;;;;;;;;;9.33;8.67;;;;;40.57;18.04;101625.38;5067754;27;66983;-55
2023/06/05 07:44:46;;;;;;;;;7.33;7.00;;;;;40.91;18.22;101614.06;5064945;27;63367;-54
2023/06/05 07:47:11;;;;;;;;;9.33;8.00;;;;;41.31;17.72;101618.41;5064551;27;45536;-54
2023/06/05 07:49:36;;;;;;;;;9.00;7.00;;;;;41.58;17.21;101619.50;5065967;27;71123;-54
2023/06/05 07:52:02;;;;;;;;;10.33;7.33;;;;;41.88;16.85;101618.94;5060679;27;45478;-55
2023/06/05 07:54:27;;;;;;;;;9.00;7.00;;;;;42.20;16.88;101618.00;5063960;27;45376;-55
2023/06/05 07:56:53;;;;;;;;;6.67;6.67;;;;;42.68;16.71;101615.22;5062257;28;46523;-55
2023/06/05 07:59:24;;;;;;;;;8.00;8.00;;;;;43.38;16.32;101616.78;5072422;27;45468;-56
2023/06/05 08:01:50;;;;;;;;;10.67;7.67;;;;;43.85;15.46;101612.84;5067702;28;45821;-55
2023/06/05 08:04:17;;;;;;;;;8.00;7.33;;;;;44.03;15.48;101608.63;5065498;27;45625;-55
2023/06/05 08:06:42;;;;;;;;;10.33;9.33;;;;;44.23;14.98;101616.13;5064223;27;45457;-55
2023/06/05 08:09:09;;;;;;;;;9.33;7.67;;;;;44.44;14.87;101613.28;5074076;27;45533;-55
2023/06/05 08:11:37;;;;;;;;;6.00;6.00;;;;;44.98;15.02;101602.34;5069890;28;45370;-56
2023/06/05 08:14:03;;;;;;;;;5.67;5.67;;;;;45.12;14.64;101605.38;5061853;27;45566;-56
2023/06/05 08:16:29;;;;;;;;;10.00;8.00;;;;;45.28;14.56;101606.09;5065791;27;46281;-56
2023/06/05 08:18:54;;;;;;;;;6.67;6.67;;;;;45.51;13.88;101613.78;5065417;28;45722;-56
2023/06/05 08:21:20;;;;;;;;;9.33;6.67;;;;;45.54;13.23;101612.34;5073653;27;45535;-56
2023/06/05 08:23:45;;;;;;;;;12.00;8.33;;;;;45.72;13.68;101608.78;5074708;27;45516;-56
2023/06/05 08:26:11;;;;;;;;;7.67;7.67;;;;;46.00;13.65;101597.00;5068154;28;70985;-56
2023/06/05 08:28:40;;;;;;;;;7.33;5.33;;;;;46.00;13.33;101599.81;5074192;27;45404;-56
2023/06/05 08:31:06;;;;;;;;;8.33;6.00;;;;;46.31;13.11;101607.94;5070140;27;45970;-55
2023/06/05 08:33:35;;;;;;;;;6.33;6.33;;;;;46.52;13.25;101614.09;5071742;27;45447;-56
2023/06/05 08:36:01;;;;;;;;;10.00;7.00;;;;;46.73;11.91;101615.53;5075254;27;45448;-57
2023/06/05 08:38:27;;;;;;;;;4.67;4.67;;;;;46.58;12.40;101609.28;5071253;27;45384;-56
2023/06/05 08:40:58;;;;;;;;;8.67;8.67;;;;;47.04;12.87;101606.66;5065357;27;45525;-56
2023/06/05 08:43:23;;;;;;;;;8.00;7.00;;;;;47.46;12.27;101606.00;5066140;27;45520;-56
2023/06/05 08:45:51;;;;;;;;;8.00;7.00;;;;;47.42;12.23;101602.09;5071455;27;46204;-56
2023/06/05 08:48:17;;;;;;;;;7.33;6.67;;;;;47.40;12.09;101605.22;5076276;27;45523;-56
2023/06/05 08:50:44;;;;;;;;;7.00;4.67;;;;;47.48;11.86;101601.72;5066004;27;45466;-56
2023/06/05 08:53:12;;;;;;;;;8.67;8.67;;;;;47.71;12.03;101601.88;5069842;27;45326;-56
2023/06/05 08:55:39;;;;;;;;;8.00;6.00;;;;;48.13;11.24;101602.75;5046657;28;45706;-56
2023/06/05 08:58:04;;;;;;;;;7.00;6.00;;;;;48.46;11.62;101608.28;5069584;27;45472;-56
2023/06/05 09:00:29;;;;;;;;;6.00;6.00;;;;;48.67;11.33;101602.22;5071272;27;45468;-56
2023/06/05 09:02:56;;;;;;;;;6.00;6.00;;;;;48.83;10.84;101603.53;5080226;27;64160;-56
2023/06/05 09:05:21;;;;;;;;;6.00;6.00;;;;;49.06;11.63;101606.38;5067692;27;46109;-57
2023/06/05 09:07:47;;;;;;;;;8.67;6.00;;;;;49.43;10.80;101600.69;5077455;27;45653;-56
2023/06/05 09:10:26;;;;;;;;;9.00;7.33;;;;;49.81;10.75;101600.25;5072470;27;45507;-56
2023/06/05 09:13:03;;;;;;;;;6.33;5.33;;;;;49.85;10.36;101604.09;5067945;27;45537;-56
2023/06/05 09:15:30;;;;;;;;;10.00;8.33;;;;;49.99;10.89;101599.19;5069652;27;45385;-56
2023/06/05 09:18:10;;;;;;;;;6.33;5.33;;;;;50.41;10.36;101600.84;5079823;27;45393;-56
2023/06/05 09:20:41;;;;;;;;;6.00;6.00;;;;;50.67;10.29;101597.16;5069476;27;45519;-56
2023/06/05 09:23:26;;;;;;;;;10.00;8.00;;;;;50.83;9.85;101604.03;5094614;27;45467;-56
2023/06/05 09:25:52;;;;;;;;;7.00;7.00;;;;;50.82;10.38;101598.72;5067658;27;46241;-57
2023/06/05 09:28:18;;;;;;;;;7.33;4.67;;;;;51.07;9.54;101603.56;5089345;27;45599;-57
2023/06/05 09:31:04;;;;;;;;;6.00;6.00;;;;;51.52;9.11;101593.00;5067306;27;45410;-57
2023/06/05 09:33:32;;;;;;;;;7.00;7.00;;;;;51.48;9.30;101598.50;5063964;27;45624;-56
2023/06/05 09:36:08;;;;;;;;;7.00;5.00;;;;;51.33;9.21;101596.19;5066237;27;46504;-57
2023/06/05 09:38:34;;;;;;;;;7.00;7.00;;;;;51.59;9.54;101590.44;5072045;27;45430;-57
2023/06/05 09:41:06;;;;;;;;;6.67;6.67;;;;;51.57;9.60;101589.97;5068481;27;45370;-57
2023/06/05 09:43:32;;;;;;;;;5.00;5.00;;;;;51.64;8.80;101589.44;5071972;27;45621;-57
2023/06/05 09:45:57;;;;;;;;;7.33;7.33;;;;;51.91;9.38;101574.84;5065095;27;46994;-57
2023/06/05 09:48:25;;;;;;;;;9.67;6.33;;;;;51.92;9.21;101573.66;5073246;27;72723;-57
2023/06/05 09:50:50;;;;;;;;;7.00;5.33;;;;;52.04;8.96;101581.44;5063770;27;45398;-57
2023/06/05 09:53:16;;;;;;;;;7.00;7.00;;;;;52.26;8.60;101568.16;5070337;27;45358;-57
2023/06/05 09:55:42;;;;;;;;;5.33;5.33;;;;;52.22;8.56;101559.50;5082636;27;46388;-57
2023/06/05 09:58:13;;;;;;;;;6.67;6.00;;;;;52.32;8.16;101566.75;5078930;27;45476;-57
2023/06/05 10:00:41;;;;;;;;;6.00;6.00;;;;;52.66;7.79;101562.00;5066724;27;45469;-57
2023/06/05 10:03:10;;;;;;;;;5.33;5.00;;;;;52.81;8.16;101560.56;5090720;27;45566;-57
2023/06/05 10:05:37;;;;;;;;;7.75;5.75;;;;;53.16;8.06;101553.72;5061419;27;46227;-57
2023/06/05 10:08:03;;;;;;;;;4.50;4.25;;;;;53.14;7.57;101564.63;5070356;27;45569;-57
2023/06/05 10:10:30;;;;;;;;;6.33;6.00;;;;;53.31;8.02;101563.59;5083230;27;68918;-57
2023/06/05 10:12:56;;;;;;;;;5.75;4.75;;;;;53.68;8.46;101561.66;5073625;27;45362;-57
2023/06/05 10:15:22;;;;;;;;;5.33;5.33;;;;;54.22;7.33;101556.91;5071123;27;46786;-57
2023/06/05 10:17:48;;;;;;;;;6.00;5.67;;;;;54.33;7.86;101554.38;5073304;27;45420;-57
2023/06/05 10:20:14;;;;;;;;;5.67;5.67;;;;;54.28;7.01;101566.84;5076704;28;51351;-57
2023/06/05 10:22:41;;;;;;;;;5.00;5.00;;;;;54.45;7.26;101554.38;5075816;27;60402;-57
2023/06/05 10:25:09;;;;;;;;;6.33;6.33;;;;;54.67;6.28;101550.16;5078470;27;63376;-57
2023/06/05 10:27:58;;;;;;;;;7.00;7.00;;;;;54.47;6.73;101554.03;5077482;27;45482;-57
2023/06/05 10:30:45;;;;;;;;;3.67;3.67;;;;;54.50;7.26;101556.97;5079226;27;45342;-57
2023/06/05 10:33:43;;;;;;;;;6.33;6.00;;;;;54.08;6.67;101550.75;5061209;27;45748;-57
2023/06/05 10:36:19;;;;;;;;;4.00;4.00;;;;;53.64;6.78;101557.88;5077647;28;46422;-56
2023/06/05 10:38:44;;;;;;;;;7.33;5.67;;;;;53.89;7.12;101557.88;5072040;27;45537;-56
2023/06/05 10:41:10;;;;;;;;;5.67;5.67;;;;;54.00;7.27;101559.03;5077852;27;57941;-57
2023/06/05 10:43:46;;;;;;;;;6.33;6.33;;;;;54.18;7.30;101550.28;5074810;27;65340;-57
2023/06/05 10:46:26;;;;;;;;;7.67;6.00;;;;;54.12;7.09;101546.84;5077848;27;45515;-56
2023/06/05 10:49:17;;;;;;;;;7.00;7.00;;;;;54.42;6.49;101555.06;5076539;27;45374;-56
2023/06/05 10:51:49;;;;;;;;;6.33;6.33;;;;;54.61;7.45;101545.09;5092831;27;45388;-57
2023/06/05 10:54:24;;;;;;;;;6.00;5.67;;;;;54.65;7.02;101554.53;5078417;27;45470;-57
2023/06/05 10:56:53;;;;;;;;;7.67;7.67;;;;;53.92;6.93;101545.78;5064335;27;45741;-56
2023/06/05 10:59:23;;;;;;;;;6.00;6.00;;;;;54.10;7.49;101536.97;5079026;27;45258;-57
2023/06/05 11:04:47;;;;;;;;;10.00;8.00;;;;;54.20;6.56;101528.84;5080342;27;45619;-57
2023/06/05 11:07:22;;;;;;;;;8.67;7.00;;;;;54.10;7.30;101528.44;5078428;27;46391;-57
2023/06/05 11:10:02;;;;;;;;;7.00;7.00;;;;;54.11;7.41;101519.63;5072824;27;45446;-58
2023/06/05 11:12:43;;;;;;;;;7.00;6.00;;;;;54.00;7.37;101522.06;5068029;27;46188;-57
2023/06/05 11:15:15;;;;;;;;;8.00;8.00;;;;;53.98;6.44;101520.78;5078801;27;45587;-57
2023/06/05 11:17:45;;;;;;;;;6.33;5.67;;;;;54.16;6.55;101512.84;5078984;27;45385;-56
2023/06/05 11:20:22;;;;;;;;;8.33;7.67;;;;;54.49;6.88;101511.78;5074425;27;45480;-57
2023/06/05 11:22:53;;;;;;;;;3.67;2.33;;;;;54.61;6.97;101516.63;5079060;27;45315;-57
2023/06/05 11:25:24;;;;;;;;;9.33;8.33;;;;;54.30;6.37;101509.59;5079108;27;45600;-56
2023/06/05 11:28:07;;;;;;;;;8.00;7.67;;;;;53.93;6.12;101504.81;5077648;27;45530;-56
2023/06/05 11:30:39;;;;;;;;;6.33;5.67;;;;;54.11;7.07;101504.56;5078456;27;45405;-57